createdAt,value
2023-02-05T00:00:21.803Z,1024.39
2023-02-05T00:01:21.767Z,1024.38
2023-02-05T00:02:21.842Z,1024.39
2023-02-05T00:03:21.822Z,1024.40
2023-02-05T00:04:21.773Z,1024.39
2023-02-05T00:05:21.720Z,1024.36
2023-02-05T00:06:21.729Z,1024.32
2023-02-05T00:07:21.758Z,1024.28
2023-02-05T00:08:21.694Z,1024.25
2023-02-05T00:09:21.675Z,1024.23
2023-02-05T00:10:21.706Z,1024.21
2023-02-05T00:11:21.686Z,1024.20
2023-02-05T00:12:21.668Z,1024.19
2023-02-05T00:13:21.631Z,1024.17
2023-02-05T00:14:21.651Z,1024.17
2023-02-05T00:15:21.612Z,1024.15
2023-02-05T00:16:21.645Z,1024.13
2023-02-05T00:17:21.610Z,1024.11
2023-02-05T00:18:21.628Z,1024.11
2023-02-05T00:19:21.580Z,1024.11
2023-02-05T00:20:21.561Z,1024.11
2023-02-05T00:21:21.583Z,1024.11
2023-02-05T00:22:21.784Z,1024.09
2023-02-05T00:23:21.530Z,1024.06
2023-02-05T00:24:21.528Z,1024.02
2023-02-05T00:25:21.515Z,1023.98
2023-02-05T00:26:21.515Z,1023.95
2023-02-05T00:27:21.498Z,1023.92
2023-02-05T00:28:21.504Z,1023.91
2023-02-05T00:29:21.491Z,1023.90
2023-02-05T00:30:21.473Z,1023.89
2023-02-05T00:31:21.621Z,1023.88
2023-02-05T00:32:21.474Z,1023.87
2023-02-05T00:33:21.445Z,1023.86
2023-02-05T00:34:21.424Z,1023.87
2023-02-05T00:35:21.418Z,1023.87
2023-02-05T00:36:21.412Z,1023.85
2023-02-05T00:37:21.384Z,1023.84
2023-02-05T00:38:21.435Z,1023.83
2023-02-05T00:39:21.391Z,1023.80
2023-02-05T00:40:21.376Z,1023.77
2023-02-05T00:41:21.341Z,1023.74
2023-02-05T00:42:21.348Z,1023.70
2023-02-05T00:43:21.349Z,1023.67
2023-02-05T00:44:21.329Z,1023.62
2023-02-05T00:45:21.315Z,1023.58
2023-02-05T00:46:21.348Z,1023.55
2023-02-05T00:47:21.323Z,1023.51
2023-02-05T00:48:21.288Z,1023.47
2023-02-05T00:49:21.309Z,1023.46
2023-02-05T00:50:21.276Z,1023.45
2023-02-05T00:51:21.261Z,1023.44
2023-02-05T00:52:21.301Z,1023.42
2023-02-05T00:53:21.209Z,1023.41
2023-02-05T00:54:21.223Z,1023.40
2023-02-05T00:55:21.245Z,1023.42
2023-02-05T00:56:21.219Z,1023.44
2023-02-05T00:57:21.175Z,1023.46
2023-02-05T00:58:21.165Z,1023.49
2023-02-05T00:59:22.685Z,1023.49
2023-02-05T01:00:21.143Z,1023.47
2023-02-05T01:01:21.183Z,1023.45
2023-02-05T01:02:21.157Z,1023.41
2023-02-05T01:03:21.127Z,1023.37
2023-02-05T01:04:21.116Z,1023.31
2023-02-05T01:05:21.134Z,1023.25
2023-02-05T01:06:21.086Z,1023.22
2023-02-05T01:07:21.087Z,1023.20
2023-02-05T01:08:21.104Z,1023.19
2023-02-05T01:09:21.052Z,1023.21
2023-02-05T01:10:21.069Z,1023.25
2023-02-05T01:11:21.051Z,1023.30
2023-02-05T01:12:21.029Z,1023.34
2023-02-05T01:13:21.028Z,1023.36
2023-02-05T01:14:21.059Z,1023.39
2023-02-05T01:15:20.994Z,1023.42
2023-02-05T01:16:21.032Z,1023.45
2023-02-05T01:17:20.965Z,1023.46
2023-02-05T01:18:21.015Z,1023.46
2023-02-05T01:19:20.972Z,1023.46
2023-02-05T01:20:20.960Z,1023.47
2023-02-05T01:21:20.923Z,1023.47
2023-02-05T01:22:20.942Z,1023.48
2023-02-05T01:23:20.915Z,1023.50
2023-02-05T01:24:20.934Z,1023.51
2023-02-05T01:25:20.877Z,1023.51
2023-02-05T01:26:20.921Z,1023.49
2023-02-05T01:27:20.867Z,1023.45
2023-02-05T01:28:20.872Z,1023.41
2023-02-05T01:29:20.861Z,1023.38
2023-02-05T01:30:20.905Z,1023.36
2023-02-05T01:31:20.948Z,1023.35
2023-02-05T01:32:20.833Z,1023.32
2023-02-05T01:33:20.802Z,1023.29
2023-02-05T01:34:20.805Z,1023.24
2023-02-05T01:35:20.797Z,1023.21
2023-02-05T01:36:20.799Z,1023.21
2023-02-05T01:37:20.761Z,1023.26
2023-02-05T01:38:20.720Z,1023.30
2023-02-05T01:39:20.789Z,1023.32
2023-02-05T01:40:20.751Z,1023.30
2023-02-05T01:41:20.732Z,1023.26
2023-02-05T01:42:20.719Z,1023.22
2023-02-05T01:43:20.714Z,1023.20
2023-02-05T01:44:20.699Z,1023.18
2023-02-05T01:45:20.722Z,1023.17
2023-02-05T01:46:20.791Z,1023.16
2023-02-05T01:47:20.667Z,1023.17
2023-02-05T01:48:20.670Z,1023.18
2023-02-05T01:49:20.645Z,1023.19
2023-02-05T01:50:20.626Z,1023.19
2023-02-05T01:51:20.639Z,1023.18
2023-02-05T01:52:20.648Z,1023.19
2023-02-05T01:53:20.633Z,1023.22
2023-02-05T01:54:20.626Z,1023.24
2023-02-05T01:55:20.631Z,1023.25
2023-02-05T01:56:20.572Z,1023.25
2023-02-05T01:57:20.553Z,1023.24
2023-02-05T01:58:20.543Z,1023.24
2023-02-05T01:59:20.565Z,1023.23
2023-02-05T02:00:20.523Z,1023.23
2023-02-05T02:01:20.550Z,1023.23
2023-02-05T02:02:20.589Z,1023.27
2023-02-05T02:03:20.480Z,1023.32
2023-02-05T02:04:20.480Z,1023.36
2023-02-05T02:05:20.616Z,1023.39
2023-02-05T02:06:20.462Z,1023.38
2023-02-05T02:07:20.745Z,1023.35
2023-02-05T02:08:20.469Z,1023.32
2023-02-05T02:09:20.417Z,1023.30
2023-02-05T02:10:20.419Z,1023.26
2023-02-05T02:11:20.482Z,1023.22
2023-02-05T02:12:20.408Z,1023.18
2023-02-05T02:13:20.370Z,1023.17
2023-02-05T02:14:20.477Z,1023.17
2023-02-05T02:15:20.361Z,1023.20
2023-02-05T02:16:20.451Z,1023.24
2023-02-05T02:17:20.379Z,1023.27
2023-02-05T02:18:20.334Z,1023.31
2023-02-05T02:19:20.328Z,1023.32
2023-02-05T02:20:20.368Z,1023.29
2023-02-05T02:21:20.325Z,1023.25
2023-02-05T02:22:20.306Z,1023.21
2023-02-05T02:23:20.308Z,1023.17
2023-02-05T02:24:20.269Z,1023.17
2023-02-05T02:25:20.246Z,1023.16
2023-02-05T02:26:20.296Z,1023.14
2023-02-05T02:27:20.222Z,1023.10
2023-02-05T02:28:20.231Z,1023.07
2023-02-05T02:29:20.294Z,1023.04
2023-02-05T02:30:20.297Z,1023.01
2023-02-05T02:31:20.205Z,1022.98
2023-02-05T02:32:20.230Z,1022.96
2023-02-05T02:33:20.162Z,1022.93
2023-02-05T02:34:20.164Z,1022.91
2023-02-05T02:35:20.167Z,1022.93
2023-02-05T02:36:20.161Z,1022.95
2023-02-05T02:37:20.164Z,1023.00
2023-02-05T02:38:20.136Z,1023.03
2023-02-05T02:39:20.108Z,1023.01
2023-02-05T02:40:20.113Z,1022.98
2023-02-05T02:41:20.078Z,1022.92
2023-02-05T02:42:20.083Z,1022.90
2023-02-05T02:43:20.077Z,1022.88
2023-02-05T02:44:20.073Z,1022.88
2023-02-05T02:45:20.038Z,1022.90
2023-02-05T02:46:20.082Z,1022.96
2023-02-05T02:47:20.027Z,1023.03
2023-02-05T02:48:20.010Z,1023.05
2023-02-05T02:49:20.012Z,1023.04
2023-02-05T02:50:20.008Z,1023.00
2023-02-05T02:51:19.982Z,1022.95
2023-02-05T02:52:19.981Z,1022.93
2023-02-05T02:53:19.983Z,1022.91
2023-02-05T02:54:20.027Z,1022.88
2023-02-05T02:55:19.961Z,1022.84
2023-02-05T02:56:19.972Z,1022.79
2023-02-05T02:57:19.916Z,1022.73
2023-02-05T02:58:19.933Z,1022.71
2023-02-05T02:59:19.904Z,1022.70
2023-02-05T03:00:19.909Z,1022.68
2023-02-05T03:01:19.886Z,1022.66
2023-02-05T03:02:19.886Z,1022.65
2023-02-05T03:03:19.856Z,1022.63
2023-02-05T03:04:19.858Z,1022.59
2023-02-05T03:05:19.986Z,1022.53
2023-02-05T03:06:19.834Z,1022.46
2023-02-05T03:07:20.013Z,1022.42
2023-02-05T03:08:19.809Z,1022.39
2023-02-05T03:09:19.820Z,1022.37
2023-02-05T03:10:19.821Z,1022.37
2023-02-05T03:11:19.909Z,1022.38
2023-02-05T03:12:19.778Z,1022.40
2023-02-05T03:13:19.757Z,1022.41
2023-02-05T03:14:19.757Z,1022.40
2023-02-05T03:15:19.760Z,1022.41
2023-02-05T03:16:19.809Z,1022.41
2023-02-05T03:17:19.756Z,1022.39
2023-02-05T03:18:19.721Z,1022.37
2023-02-05T03:19:19.688Z,1022.37
2023-02-05T03:20:19.691Z,1022.37
2023-02-05T03:21:19.698Z,1022.34
2023-02-05T03:22:19.683Z,1022.31
2023-02-05T03:23:19.666Z,1022.30
2023-02-05T03:24:19.653Z,1022.31
2023-02-05T03:25:19.682Z,1022.34
2023-02-05T03:26:19.634Z,1022.35
2023-02-05T03:27:19.630Z,1022.36
2023-02-05T03:28:19.641Z,1022.35
2023-02-05T03:29:19.591Z,1022.33
2023-02-05T03:30:19.590Z,1022.32
2023-02-05T03:31:19.627Z,1022.33
2023-02-05T03:32:19.553Z,1022.38
2023-02-05T03:33:19.544Z,1022.40
2023-02-05T03:34:19.543Z,1022.40
2023-02-05T03:35:19.541Z,1022.37
2023-02-05T03:36:19.546Z,1022.35
2023-02-05T03:37:19.528Z,1022.33
2023-02-05T03:38:19.501Z,1022.33
2023-02-05T03:39:19.487Z,1022.32
2023-02-05T03:40:19.486Z,1022.30
2023-02-05T03:41:19.453Z,1022.31
2023-02-05T03:42:19.485Z,1022.31
2023-02-05T03:43:19.458Z,1022.31
2023-02-05T03:44:19.437Z,1022.32
2023-02-05T03:45:19.463Z,1022.30
2023-02-05T03:46:19.454Z,1022.27
2023-02-05T03:47:19.413Z,1022.25
2023-02-05T03:48:19.430Z,1022.24
2023-02-05T03:49:19.374Z,1022.21
2023-02-05T03:50:19.392Z,1022.19
2023-02-05T03:51:19.480Z,1022.20
2023-02-05T03:52:19.368Z,1022.24
2023-02-05T03:53:19.332Z,1022.30
2023-02-05T03:54:19.332Z,1022.35
2023-02-05T03:55:19.315Z,1022.38
2023-02-05T03:56:19.309Z,1022.38
2023-02-05T03:57:19.301Z,1022.39
2023-02-05T03:58:19.309Z,1022.38
2023-02-05T03:59:19.259Z,1022.40
2023-02-05T04:00:19.295Z,1022.43
2023-02-05T04:01:19.381Z,1022.44
2023-02-05T04:02:19.290Z,1022.47
2023-02-05T04:03:19.236Z,1022.49
2023-02-05T04:04:19.225Z,1022.51
2023-02-05T04:05:19.232Z,1022.51
2023-02-05T04:06:19.193Z,1022.51
2023-02-05T04:07:19.213Z,1022.49
2023-02-05T04:08:19.169Z,1022.47
2023-02-05T04:09:19.180Z,1022.46
2023-02-05T04:10:19.150Z,1022.46
2023-02-05T04:11:19.152Z,1022.49
2023-02-05T04:12:19.151Z,1022.53
2023-02-05T04:13:19.139Z,1022.58
2023-02-05T04:14:19.112Z,1022.60
2023-02-05T04:15:19.109Z,1022.59
2023-02-05T04:16:19.127Z,1022.60
2023-02-05T04:17:19.117Z,1022.56
2023-02-05T04:18:19.137Z,1022.55
2023-02-05T04:19:19.071Z,1022.50
2023-02-05T04:20:19.070Z,1022.48
2023-02-05T04:21:19.051Z,1022.46
2023-02-05T04:22:19.016Z,1022.47
2023-02-05T04:23:19.014Z,1022.49
2023-02-05T04:24:19.025Z,1022.50
2023-02-05T04:25:19.013Z,1022.47
2023-02-05T04:26:18.979Z,1022.48
2023-02-05T04:27:18.981Z,1022.46
2023-02-05T04:28:18.999Z,1022.46
2023-02-05T04:29:18.981Z,1022.45
2023-02-05T04:30:18.964Z,1022.47
2023-02-05T04:31:18.983Z,1022.50
2023-02-05T04:32:18.931Z,1022.50
2023-02-05T04:33:18.934Z,1022.52
2023-02-05T04:34:18.895Z,1022.55
2023-02-05T04:35:18.903Z,1022.54
2023-02-05T04:36:18.899Z,1022.49
2023-02-05T04:37:18.896Z,1022.44
2023-02-05T04:38:18.864Z,1022.42
2023-02-05T04:39:18.917Z,1022.39
2023-02-05T04:40:18.886Z,1022.36
2023-02-05T04:41:18.881Z,1022.33
2023-02-05T04:42:18.894Z,1022.28
2023-02-05T04:43:18.825Z,1022.24
2023-02-05T04:44:18.805Z,1022.22
2023-02-05T04:45:18.797Z,1022.20
2023-02-05T04:46:18.792Z,1022.21
2023-02-05T04:47:18.775Z,1022.21
2023-02-05T04:48:18.762Z,1022.23
2023-02-05T04:49:18.764Z,1022.27
2023-02-05T04:50:18.731Z,1022.30
2023-02-05T04:51:18.753Z,1022.33
2023-02-05T04:52:18.718Z,1022.32
2023-02-05T04:53:18.725Z,1022.32
2023-02-05T04:54:18.712Z,1022.32
2023-02-05T04:55:18.696Z,1022.30
2023-02-05T04:56:18.687Z,1022.30
2023-02-05T04:57:18.671Z,1022.28
2023-02-05T04:58:18.664Z,1022.25
2023-02-05T04:59:18.657Z,1022.25
2023-02-05T05:00:18.657Z,1022.24
2023-02-05T05:01:18.780Z,1022.22
2023-02-05T05:02:18.688Z,1022.22
2023-02-05T05:03:18.613Z,1022.20
2023-02-05T05:04:18.588Z,1022.20
2023-02-05T05:05:18.580Z,1022.22
2023-02-05T05:06:18.595Z,1022.23
2023-02-05T05:07:18.623Z,1022.26
2023-02-05T05:08:18.561Z,1022.27
2023-02-05T05:09:18.665Z,1022.28
2023-02-05T05:10:18.546Z,1022.28
2023-02-05T05:11:18.559Z,1022.25
2023-02-05T05:12:18.572Z,1022.24
2023-02-05T05:13:18.525Z,1022.22
2023-02-05T05:14:18.504Z,1022.23
2023-02-05T05:15:18.492Z,1022.23
2023-02-05T05:16:18.503Z,1022.24
2023-02-05T05:17:18.514Z,1022.21
2023-02-05T05:18:18.464Z,1022.21
2023-02-05T05:19:18.697Z,1022.23
2023-02-05T05:20:18.439Z,1022.23
2023-02-05T05:21:18.456Z,1022.23
2023-02-05T05:22:18.429Z,1022.22
2023-02-05T05:23:18.433Z,1022.21
2023-02-05T05:24:18.403Z,1022.20
2023-02-05T05:25:18.419Z,1022.20
2023-02-05T05:26:18.380Z,1022.20
2023-02-05T05:27:18.391Z,1022.19
2023-02-05T05:28:18.357Z,1022.20
2023-02-05T05:29:18.373Z,1022.18
2023-02-05T05:30:18.331Z,1022.13
2023-02-05T05:31:18.365Z,1022.11
2023-02-05T05:32:18.419Z,1022.09
2023-02-05T05:33:18.336Z,1022.05
2023-02-05T05:34:18.288Z,1022.02
2023-02-05T05:35:18.293Z,1021.99
2023-02-05T05:36:18.285Z,1021.97
2023-02-05T05:37:18.349Z,1021.96
2023-02-05T05:38:18.257Z,1021.96
2023-02-05T05:39:18.400Z,1021.95
2023-02-05T05:40:18.243Z,1021.95
2023-02-05T05:41:18.476Z,1021.94
2023-02-05T05:42:18.207Z,1021.93
2023-02-05T05:43:18.253Z,1021.91
2023-02-05T05:44:18.201Z,1021.91
2023-02-05T05:45:18.247Z,1021.92
2023-02-05T05:46:18.225Z,1021.93
2023-02-05T05:47:18.190Z,1021.93
2023-02-05T05:48:18.175Z,1021.91
2023-02-05T05:49:18.179Z,1021.91
2023-02-05T05:50:18.128Z,1021.92
2023-02-05T05:51:18.121Z,1021.92
2023-02-05T05:52:18.118Z,1021.92
2023-02-05T05:53:18.151Z,1021.94
2023-02-05T05:54:18.098Z,1021.95
2023-02-05T05:55:18.091Z,1021.95
2023-02-05T05:56:18.091Z,1021.94
2023-02-05T05:57:18.069Z,1021.93
2023-02-05T05:58:18.042Z,1021.92
2023-02-05T05:59:18.065Z,1021.91
2023-02-05T06:00:18.036Z,1021.91
2023-02-05T06:01:18.030Z,1021.91
2023-02-05T06:02:18.062Z,1021.91
2023-02-05T06:03:18.054Z,1021.91
2023-02-05T06:04:18.148Z,1021.92
2023-02-05T06:05:17.979Z,1021.90
2023-02-05T06:06:17.956Z,1021.90
2023-02-05T06:07:17.967Z,1021.90
2023-02-05T06:08:17.946Z,1021.88
2023-02-05T06:09:17.955Z,1021.88
2023-02-05T06:10:17.918Z,1021.86
2023-02-05T06:11:17.940Z,1021.85
2023-02-05T06:12:17.903Z,1021.85
2023-02-05T06:13:17.929Z,1021.85
2023-02-05T06:14:17.908Z,1021.84
2023-02-05T06:15:17.924Z,1021.83
2023-02-05T06:16:17.926Z,1021.80
2023-02-05T06:17:17.858Z,1021.79
2023-02-05T06:18:17.839Z,1021.78
2023-02-05T06:19:17.830Z,1021.78
2023-02-05T06:20:17.840Z,1021.77
2023-02-05T06:21:17.831Z,1021.75
2023-02-05T06:22:17.811Z,1021.73
2023-02-05T06:23:17.796Z,1021.72
2023-02-05T06:24:17.782Z,1021.71
2023-02-05T06:25:17.779Z,1021.70
2023-02-05T06:26:17.770Z,1021.70
2023-02-05T06:27:17.762Z,1021.67
2023-02-05T06:28:17.820Z,1021.66
2023-02-05T06:29:17.743Z,1021.64
2023-02-05T06:30:17.724Z,1021.61
2023-02-05T06:31:17.869Z,1021.60
2023-02-05T06:32:17.700Z,1021.57
2023-02-05T06:33:17.713Z,1021.57
2023-02-05T06:34:17.703Z,1021.57
2023-02-05T06:35:17.683Z,1021.57
2023-02-05T06:36:17.671Z,1021.58
2023-02-05T06:37:17.671Z,1021.59
2023-02-05T06:38:17.646Z,1021.60
2023-02-05T06:39:17.649Z,1021.62
2023-02-05T06:40:17.612Z,1021.63
2023-02-05T06:41:17.631Z,1021.61
2023-02-05T06:42:17.622Z,1021.63
2023-02-05T06:43:17.603Z,1021.62
2023-02-05T06:44:17.603Z,1021.62
2023-02-05T06:45:17.526Z,1021.60
2023-02-05T06:46:17.546Z,1021.61
2023-02-05T06:47:17.524Z,1021.61
2023-02-05T06:48:17.477Z,1021.59
2023-02-05T06:49:17.500Z,1021.57
2023-02-05T06:50:17.466Z,1021.56
2023-02-05T06:51:17.471Z,1021.56
2023-02-05T06:52:17.523Z,1021.59
2023-02-05T06:53:17.462Z,1021.61
2023-02-05T06:54:17.541Z,1021.63
2023-02-05T06:55:17.415Z,1021.64
2023-02-05T06:56:17.417Z,1021.64
2023-02-05T06:57:17.445Z,1021.65
2023-02-05T06:58:17.383Z,1021.64
2023-02-05T06:59:17.374Z,1021.62
2023-02-05T07:00:17.392Z,1021.66
2023-02-05T07:01:17.580Z,1021.64
2023-02-05T07:02:17.594Z,1021.64
2023-02-05T07:03:17.361Z,1021.65
2023-02-05T07:04:17.335Z,1021.62
2023-02-05T07:05:17.346Z,1021.61
2023-02-05T07:06:17.316Z,1021.60
2023-02-05T07:07:17.312Z,1021.58
2023-02-05T07:08:17.347Z,1021.57
2023-02-05T07:09:17.284Z,1021.58
2023-02-05T07:10:17.290Z,1021.60
2023-02-05T07:11:17.268Z,1021.60
2023-02-05T07:12:17.232Z,1021.58
2023-02-05T07:13:17.244Z,1021.58
2023-02-05T07:14:17.243Z,1021.55
2023-02-05T07:15:17.328Z,1021.55
2023-02-05T07:16:17.278Z,1021.56
2023-02-05T07:17:17.197Z,1021.58
2023-02-05T07:18:17.214Z,1021.60
2023-02-05T07:19:17.174Z,1021.59
2023-02-05T07:20:17.168Z,1021.60
2023-02-05T07:21:17.187Z,1021.61
2023-02-05T07:22:17.158Z,1021.60
2023-02-05T07:23:17.138Z,1021.58
2023-02-05T07:24:17.118Z,1021.55
2023-02-05T07:25:17.112Z,1021.57
2023-02-05T07:26:17.103Z,1021.57
2023-02-05T07:27:17.119Z,1021.56
2023-02-05T07:28:17.123Z,1021.55
2023-02-05T07:29:17.149Z,1021.54
2023-02-05T07:30:17.047Z,1021.54
2023-02-05T07:31:17.335Z,1021.52
2023-02-05T07:32:17.032Z,1021.53
2023-02-05T07:33:17.044Z,1021.53
2023-02-05T07:34:17.010Z,1021.54
2023-02-05T07:35:17.017Z,1021.54
2023-02-05T07:36:17.007Z,1021.57
2023-02-05T07:37:16.993Z,1021.59
2023-02-05T07:38:16.986Z,1021.60
2023-02-05T07:39:17.280Z,1021.62
2023-02-05T07:40:16.972Z,1021.64
2023-02-05T07:41:16.961Z,1021.66
2023-02-05T07:42:16.937Z,1021.68
2023-02-05T07:43:16.920Z,1021.68
2023-02-05T07:44:16.907Z,1021.66
2023-02-05T07:45:16.920Z,1021.67
2023-02-05T07:46:16.917Z,1021.67
2023-02-05T07:47:16.901Z,1021.67
2023-02-05T07:48:16.875Z,1021.67
2023-02-05T07:49:16.864Z,1021.69
2023-02-05T07:50:16.865Z,1021.69
2023-02-05T07:51:16.855Z,1021.67
2023-02-05T07:52:16.983Z,1021.66
2023-02-05T07:53:16.821Z,1021.66
2023-02-05T07:54:16.799Z,1021.67
2023-02-05T07:55:16.811Z,1021.67
2023-02-05T07:56:16.779Z,1021.66
2023-02-05T07:57:16.781Z,1021.66
2023-02-05T07:58:16.762Z,1021.66
2023-02-05T07:59:16.764Z,1021.66
2023-02-05T08:00:16.890Z,1021.65
2023-02-05T08:01:16.825Z,1021.67
2023-02-05T08:02:16.712Z,1021.67
2023-02-05T08:03:16.722Z,1021.69
2023-02-05T08:04:16.767Z,1021.70
2023-02-05T08:05:16.716Z,1021.70
2023-02-05T08:06:16.676Z,1021.70
2023-02-05T08:07:16.684Z,1021.71
2023-02-05T08:08:31.511Z,1021.75
2023-02-05T08:09:16.656Z,1021.80
2023-02-05T08:10:16.641Z,1021.86
2023-02-05T08:11:16.679Z,1021.84
2023-02-05T08:12:16.616Z,1021.81
2023-02-05T08:13:16.611Z,1021.86
2023-02-05T08:14:16.610Z,1021.84
2023-02-05T08:15:16.606Z,1021.88
2023-02-05T08:16:16.612Z,1021.88
2023-02-05T08:17:16.626Z,1021.94
2023-02-05T08:18:16.550Z,1021.99
2023-02-05T08:19:16.600Z,1021.99
2023-02-05T08:20:16.544Z,1022.00
2023-02-05T08:21:16.546Z,1022.02
2023-02-05T08:22:16.665Z,1021.95
2023-02-05T08:23:16.523Z,1021.93
2023-02-05T08:24:16.531Z,1021.96
2023-02-05T08:25:16.512Z,1022.07
2023-02-05T08:26:16.486Z,1021.98
2023-02-05T08:27:16.474Z,1021.98
2023-02-05T08:28:16.532Z,1022.00
2023-02-05T08:29:16.464Z,1021.96
2023-02-05T08:30:16.456Z,1022.22
2023-02-05T08:31:16.467Z,1021.97
2023-02-05T08:32:16.427Z,1021.92
2023-02-05T08:33:16.419Z,1021.88
2023-02-05T08:34:16.418Z,1021.90
2023-02-05T08:35:16.422Z,1021.86
2023-02-05T08:36:16.390Z,1021.93
2023-02-05T08:37:16.369Z,1021.89
2023-02-05T08:38:16.402Z,1021.94
2023-02-05T08:39:16.370Z,1021.92
2023-02-05T08:40:16.344Z,1021.95
2023-02-05T08:41:16.415Z,1021.95
2023-02-05T08:42:16.410Z,1021.98
2023-02-05T08:43:16.309Z,1022.03
2023-02-05T08:44:16.299Z,1022.07
2023-02-05T08:45:16.315Z,1022.05
2023-02-05T08:46:16.381Z,1022.09
2023-02-05T08:47:16.266Z,1022.08
2023-02-05T08:48:16.267Z,1022.13
2023-02-05T08:49:16.256Z,1022.13
2023-02-05T08:50:16.237Z,1022.09
2023-02-05T08:51:16.257Z,1022.05
2023-02-05T08:52:16.228Z,1022.08
2023-02-05T08:53:16.209Z,1022.08
2023-02-05T08:54:16.195Z,1022.09
2023-02-05T08:55:16.205Z,1022.07
2023-02-05T08:56:16.177Z,1022.13
2023-02-05T08:57:16.194Z,1022.09
2023-02-05T08:58:16.187Z,1022.10
2023-02-05T08:59:16.138Z,1022.09
2023-02-05T09:00:16.158Z,1022.11
2023-02-05T09:01:16.227Z,1022.10
2023-02-05T09:02:16.121Z,1022.11
2023-02-05T09:03:16.123Z,1022.10
2023-02-05T09:04:16.143Z,1022.11
2023-02-05T09:05:16.087Z,1022.13
2023-02-05T09:06:16.084Z,1022.11
2023-02-05T09:07:16.084Z,1022.16
2023-02-05T09:08:16.088Z,1022.18
2023-02-05T09:09:16.034Z,1022.13
2023-02-05T09:10:16.076Z,1022.12
2023-02-05T09:11:16.021Z,1022.11
2023-02-05T09:12:16.026Z,1022.07
2023-02-05T09:13:16.031Z,1022.11
2023-02-05T09:14:16.032Z,1022.08
2023-02-05T09:15:15.970Z,1022.08
2023-02-05T09:16:16.010Z,1022.06
2023-02-05T09:17:15.965Z,1022.01
2023-02-05T09:18:16.004Z,1022.06
2023-02-05T09:19:15.945Z,1022.05
2023-02-05T09:20:15.956Z,1022.08
2023-02-05T09:21:15.911Z,1022.10
2023-02-05T09:22:15.947Z,1022.06
2023-02-05T09:23:15.937Z,1022.05
2023-02-05T09:24:15.911Z,1022.10
2023-02-05T09:25:15.881Z,1022.06
2023-02-05T09:26:15.889Z,1022.11
2023-02-05T09:27:15.866Z,1022.16
2023-02-05T09:28:15.956Z,1022.11
2023-02-05T09:29:16.017Z,1022.06
2023-02-05T09:30:15.831Z,1022.08
2023-02-05T09:31:15.966Z,1022.11
2023-02-05T09:32:15.844Z,1022.04
2023-02-05T09:33:15.796Z,1021.99
2023-02-05T09:34:15.799Z,1022.01
2023-02-05T09:35:16.064Z,1021.98
2023-02-05T09:36:15.772Z,1022.00
2023-02-05T09:37:15.761Z,1022.04
2023-02-05T09:38:15.771Z,1022.10
2023-02-05T09:39:30.794Z,1022.09
2023-02-05T09:40:20.929Z,1022.03
2023-02-05T09:41:15.757Z,1022.02
2023-02-05T09:42:15.736Z,1021.98
2023-02-05T09:43:15.716Z,1022.01
2023-02-05T09:44:15.705Z,1022.01
2023-02-05T09:45:15.703Z,1022.04
2023-02-05T09:46:15.771Z,1022.06
2023-02-05T09:47:15.650Z,1022.02
2023-02-05T09:48:15.778Z,1022.03
2023-02-05T09:49:15.641Z,1022.03
2023-02-05T09:50:15.633Z,1022.01
2023-02-05T09:51:15.624Z,1022.05
2023-02-05T09:52:15.643Z,1022.00
2023-02-05T09:53:15.615Z,1021.98
2023-02-05T09:54:15.640Z,1021.97
2023-02-05T09:55:15.603Z,1021.97
2023-02-05T09:56:15.571Z,1021.94
2023-02-05T09:57:15.556Z,1021.89
2023-02-05T09:58:15.566Z,1021.99
2023-02-05T09:59:15.592Z,1021.94
2023-02-05T10:00:15.554Z,1021.97
2023-02-05T10:01:15.554Z,1022.05
2023-02-05T10:02:15.526Z,1021.98
2023-02-05T10:03:15.535Z,1021.98
2023-02-05T10:04:15.548Z,1022.00
2023-02-05T10:05:15.462Z,1021.96
2023-02-05T10:06:15.481Z,1021.99
2023-02-05T10:07:15.455Z,1022.04
2023-02-05T10:08:15.466Z,1022.23
2023-02-05T10:09:15.440Z,1022.12
2023-02-05T10:10:15.476Z,1022.05
2023-02-05T10:11:15.403Z,1022.08
2023-02-05T10:12:15.429Z,1022.05
2023-02-05T10:13:15.383Z,1022.00
2023-02-05T10:14:15.412Z,1021.99
2023-02-05T10:15:15.451Z,1021.97
2023-02-05T10:16:15.393Z,1021.97
2023-02-05T10:17:15.364Z,1022.02
2023-02-05T10:18:15.392Z,1021.94
2023-02-05T10:19:15.342Z,1021.93
2023-02-05T10:20:15.344Z,1021.96
2023-02-05T10:21:15.348Z,1021.94
2023-02-05T10:22:15.304Z,1021.93
2023-02-05T10:23:15.284Z,1021.94
2023-02-05T10:24:15.296Z,1021.83
2023-02-05T10:25:15.251Z,1021.92
2023-02-05T10:26:15.471Z,1021.88
2023-02-05T10:27:15.269Z,1021.91
2023-02-05T10:28:15.278Z,1021.87
2023-02-05T10:29:15.225Z,1021.85
2023-02-05T10:30:15.240Z,1021.96
2023-02-05T10:31:15.292Z,1021.93
2023-02-05T10:32:15.200Z,1021.94
2023-02-05T10:33:15.220Z,1021.98
2023-02-05T10:34:15.175Z,1021.91
2023-02-05T10:35:15.185Z,1021.90
2023-02-05T10:36:15.141Z,1021.98
2023-02-05T10:37:15.184Z,1021.99
2023-02-05T10:38:15.193Z,1021.94
2023-02-05T10:39:15.146Z,1021.97
2023-02-05T10:40:15.114Z,1021.97
2023-02-05T10:41:15.095Z,1021.94
2023-02-05T10:42:15.109Z,1021.99
2023-02-05T10:43:15.104Z,1021.99
2023-02-05T10:44:15.117Z,1021.93
2023-02-05T10:45:16.099Z,1022.13
2023-02-05T10:46:15.104Z,1022.02
2023-02-05T10:47:15.061Z,1022.02
2023-02-05T10:48:15.031Z,1022.02
2023-02-05T10:49:15.019Z,1022.06
2023-02-05T10:50:15.031Z,1022.10
2023-02-05T10:51:14.997Z,1022.13
2023-02-05T10:52:15.002Z,1022.22
2023-02-05T10:53:14.982Z,1022.07
2023-02-05T10:54:15.115Z,1022.20
2023-02-05T10:55:14.946Z,1022.10
2023-02-05T10:56:14.966Z,1022.17
2023-02-05T10:57:14.934Z,1022.17
2023-02-05T10:58:14.958Z,1022.40
2023-02-05T10:59:14.940Z,1022.22
2023-02-05T11:00:14.987Z,1022.19
2023-02-05T11:01:14.979Z,1022.16
2023-02-05T11:02:14.892Z,1022.20
2023-02-05T11:03:14.860Z,1022.28
2023-02-05T11:04:14.897Z,1022.36
2023-02-05T11:05:14.858Z,1022.24
2023-02-05T11:06:14.855Z,1022.29
2023-02-05T11:07:14.904Z,1022.30
2023-02-05T11:08:14.831Z,1022.27
2023-02-05T11:09:14.812Z,1022.42
2023-02-05T11:10:14.821Z,1022.30
2023-02-05T11:11:14.786Z,1022.29
2023-02-05T11:12:14.806Z,1022.32
2023-02-05T11:13:14.773Z,1022.50
2023-02-05T11:14:14.828Z,1022.34
2023-02-05T11:15:14.873Z,1022.35
2023-02-05T11:16:14.791Z,1022.40
2023-02-05T11:17:14.729Z,1022.49
2023-02-05T11:18:14.739Z,1022.34
2023-02-05T11:19:14.878Z,1022.35
2023-02-05T11:20:14.728Z,1022.38
2023-02-05T11:21:14.681Z,1022.47
2023-02-05T11:22:14.704Z,1022.43
2023-02-05T11:23:14.693Z,1022.42
2023-02-05T11:24:14.675Z,1022.45
2023-02-05T11:25:14.655Z,1022.50
2023-02-05T11:26:14.641Z,1022.56
2023-02-05T11:27:14.622Z,1022.55
2023-02-05T11:28:14.615Z,1022.49
2023-02-05T11:29:14.600Z,1022.70
2023-02-05T11:30:14.604Z,1022.55
2023-02-05T11:31:14.704Z,1022.52
2023-02-05T11:32:14.698Z,1022.62
2023-02-05T11:33:14.578Z,1022.64
2023-02-05T11:34:14.555Z,1022.57
2023-02-05T11:35:14.547Z,1022.63
2023-02-05T11:36:14.528Z,1022.73
2023-02-05T11:37:14.505Z,1022.71
2023-02-05T11:38:14.578Z,1022.77
2023-02-05T11:39:14.514Z,1022.78
2023-02-05T11:40:14.512Z,1022.94
2023-02-05T11:41:14.476Z,1022.86
2023-02-05T11:42:14.473Z,1022.95
2023-02-05T11:43:14.481Z,1022.89
2023-02-05T11:44:14.453Z,1022.96
2023-02-05T11:45:14.489Z,1023.00
2023-02-05T11:46:14.557Z,1023.03
2023-02-05T11:47:14.434Z,1023.12
2023-02-05T11:48:14.412Z,1023.13
2023-02-05T11:49:14.395Z,1023.10
2023-02-05T11:50:14.402Z,1023.14
2023-02-05T11:51:14.367Z,1023.09
2023-02-05T11:52:14.390Z,1023.25
2023-02-05T11:53:14.354Z,1023.29
2023-02-05T11:54:14.379Z,1023.28
2023-02-05T11:55:14.325Z,1023.34
2023-02-05T11:56:14.368Z,1023.24
2023-02-05T11:57:14.317Z,1023.29
2023-02-05T11:58:15.070Z,1023.32
2023-02-05T11:59:14.290Z,1023.30
2023-02-05T12:00:14.330Z,1023.43
2023-02-05T12:01:14.260Z,1023.36
2023-02-05T12:02:14.336Z,1023.41
2023-02-05T12:03:14.302Z,1023.40
2023-02-05T12:04:14.245Z,1023.42
2023-02-05T12:05:14.251Z,1023.50